Aviation Digital Data Service (ADDS)

Output produced by METARs form (2214 UTC 01 August 2015)
found at http://aviationweather.gov/adds/metars/
 
KBPT 012153Z 02013KT 10SM CLR 36/17 A2988 RMK AO2 SLP117 T03610172 $